sensor_id;sensor_type;location;lat;lon;timestamp;P1;durP1;ratioP1;P2;durP2;ratioP2
74320;SDS011;62738;45.772;4.804;2023-02-17T00:03:42;26.23;;;11.88;;
74320;SDS011;62738;45.772;4.804;2023-02-17T00:06:14;27.52;;;12.23;;
74320;SDS011;62738;45.772;4.804;2023-02-17T00:08:41;28.35;;;13.30;;
74320;SDS011;62738;45.772;4.804;2023-02-17T00:11:08;28.05;;;12.48;;
74320;SDS011;62738;45.772;4.804;2023-02-17T00:13:35;26.63;;;13.00;;
74320;SDS011;62738;45.772;4.804;2023-02-17T00:16:06;27.05;;;12.85;;
74320;SDS011;62738;45.772;4.804;2023-02-17T00:18:36;25.80;;;12.23;;
74320;SDS011;62738;45.772;4.804;2023-02-17T00:21:16;24.88;;;13.25;;
74320;SDS011;62738;45.772;4.804;2023-02-17T00:23:45;24.52;;;12.38;;
74320;SDS011;62738;45.772;4.804;2023-02-17T00:26:13;27.15;;;12.55;;
74320;SDS011;62738;45.772;4.804;2023-02-17T00:28:41;26.75;;;11.88;;
74320;SDS011;62738;45.772;4.804;2023-02-17T00:31:09;27.17;;;12.90;;
74320;SDS011;62738;45.772;4.804;2023-02-17T00:33:38;24.60;;;11.52;;
74320;SDS011;62738;45.772;4.804;2023-02-17T00:36:06;28.05;;;12.40;;
74320;SDS011;62738;45.772;4.804;2023-02-17T00:38:36;24.15;;;11.95;;
74320;SDS011;62738;45.772;4.804;2023-02-17T00:41:02;23.92;;;11.68;;
74320;SDS011;62738;45.772;4.804;2023-02-17T00:43:29;21.70;;;11.13;;
74320;SDS011;62738;45.772;4.804;2023-02-17T00:45:56;20.95;;;11.32;;
74320;SDS011;62738;45.772;4.804;2023-02-17T00:48:23;23.13;;;12.07;;
74320;SDS011;62738;45.772;4.804;2023-02-17T00:50:50;23.27;;;11.45;;
74320;SDS011;62738;45.772;4.804;2023-02-17T00:53:16;22.23;;;11.77;;
74320;SDS011;62738;45.772;4.804;2023-02-17T00:55:43;23.70;;;11.25;;
74320;SDS011;62738;45.772;4.804;2023-02-17T00:58:10;21.90;;;11.27;;
74320;SDS011;62738;45.772;4.804;2023-02-17T01:00:38;20.38;;;10.82;;
74320;SDS011;62738;45.772;4.804;2023-02-17T01:03:05;22.48;;;11.15;;
74320;SDS011;62738;45.772;4.804;2023-02-17T01:05:32;21.60;;;10.60;;
74320;SDS011;62738;45.772;4.804;2023-02-17T01:07:59;23.20;;;11.25;;
74320;SDS011;62738;45.772;4.804;2023-02-17T01:10:26;22.23;;;10.88;;
74320;SDS011;62738;45.772;4.804;2023-02-17T01:12:52;21.45;;;11.30;;
74320;SDS011;62738;45.772;4.804;2023-02-17T01:15:19;21.15;;;10.88;;
74320;SDS011;62738;45.772;4.804;2023-02-17T01:17:46;21.30;;;11.13;;
74320;SDS011;62738;45.772;4.804;2023-02-17T01:20:12;20.38;;;11.35;;
74320;SDS011;62738;45.772;4.804;2023-02-17T01:22:40;20.30;;;10.57;;
74320;SDS011;62738;45.772;4.804;2023-02-17T01:25:08;21.77;;;10.57;;
74320;SDS011;62738;45.772;4.804;2023-02-17T01:27:35;20.85;;;10.82;;
74320;SDS011;62738;45.772;4.804;2023-02-17T01:30:02;21.50;;;11.13;;
74320;SDS011;62738;45.772;4.804;2023-02-17T01:32:30;21.40;;;11.07;;
74320;SDS011;62738;45.772;4.804;2023-02-17T01:34:56;23.98;;;10.85;;
74320;SDS011;62738;45.772;4.804;2023-02-17T01:37:23;22.20;;;11.27;;
74320;SDS011;62738;45.772;4.804;2023-02-17T01:39:50;22.08;;;10.68;;
74320;SDS011;62738;45.772;4.804;2023-02-17T01:42:17;21.35;;;10.40;;
74320;SDS011;62738;45.772;4.804;2023-02-17T01:47:47;21.00;;;10.32;;
74320;SDS011;62738;45.772;4.804;2023-02-17T01:50:20;20.60;;;11.15;;
74320;SDS011;62738;45.772;4.804;2023-02-17T01:52:51;22.10;;;10.82;;
74320;SDS011;62738;45.772;4.804;2023-02-17T01:55:21;20.45;;;10.95;;
74320;SDS011;62738;45.772;4.804;2023-02-17T01:57:50;18.90;;;10.27;;
74320;SDS011;62738;45.772;4.804;2023-02-17T02:00:20;19.73;;;9.63;;
74320;SDS011;62738;45.772;4.804;2023-02-17T02:02:51;19.63;;;10.65;;
74320;SDS011;62738;45.772;4.804;2023-02-17T02:05:19;17.95;;;9.68;;
74320;SDS011;62738;45.772;4.804;2023-02-17T02:07:46;19.60;;;9.95;;
74320;SDS011;62738;45.772;4.804;2023-02-17T02:10:15;16.90;;;9.35;;
74320;SDS011;62738;45.772;4.804;2023-02-17T02:12:44;19.52;;;10.82;;
74320;SDS011;62738;45.772;4.804;2023-02-17T02:15:15;19.98;;;10.13;;
74320;SDS011;62738;45.772;4.804;2023-02-17T02:20:36;18.77;;;10.00;;
74320;SDS011;62738;45.772;4.804;2023-02-17T02:26:33;20.00;;;9.00;;
74320;SDS011;62738;45.772;4.804;2023-02-17T02:35:08;21.73;;;10.35;;
74320;SDS011;62738;45.772;4.804;2023-02-17T02:37:51;18.65;;;9.90;;
74320;SDS011;62738;45.772;4.804;2023-02-17T02:40:23;19.17;;;10.20;;
74320;SDS011;62738;45.772;4.804;2023-02-17T02:42:55;20.15;;;10.10;;
74320;SDS011;62738;45.772;4.804;2023-02-17T02:45:22;21.45;;;10.70;;
74320;SDS011;62738;45.772;4.804;2023-02-17T02:47:53;15.90;;;9.13;;
74320;SDS011;62738;45.772;4.804;2023-02-17T03:04:13;18.38;;;9.65;;
74320;SDS011;62738;45.772;4.804;2023-02-17T03:06:44;18.67;;;9.90;;
74320;SDS011;62738;45.772;4.804;2023-02-17T03:09:25;18.05;;;9.02;;
74320;SDS011;62738;45.772;4.804;2023-02-17T03:11:53;20.80;;;10.02;;
74320;SDS011;62738;45.772;4.804;2023-02-17T03:14:22;18.50;;;9.95;;
74320;SDS011;62738;45.772;4.804;2023-02-17T03:16:49;21.23;;;9.73;;
74320;SDS011;62738;45.772;4.804;2023-02-17T03:19:18;19.83;;;9.60;;
74320;SDS011;62738;45.772;4.804;2023-02-17T03:21:49;18.10;;;9.30;;
74320;SDS011;62738;45.772;4.804;2023-02-17T03:24:18;18.63;;;8.85;;
74320;SDS011;62738;45.772;4.804;2023-02-17T03:26:45;18.55;;;9.15;;
74320;SDS011;62738;45.772;4.804;2023-02-17T03:29:13;18.38;;;9.63;;
74320;SDS011;62738;45.772;4.804;2023-02-17T03:31:40;18.33;;;10.00;;
74320;SDS011;62738;45.772;4.804;2023-02-17T03:34:07;21.40;;;9.75;;
74320;SDS011;62738;45.772;4.804;2023-02-17T03:36:34;18.40;;;9.85;;
74320;SDS011;62738;45.772;4.804;2023-02-17T03:39:00;19.70;;;9.77;;
74320;SDS011;62738;45.772;4.804;2023-02-17T03:41:27;21.75;;;10.15;;
74320;SDS011;62738;45.772;4.804;2023-02-17T03:43:54;21.52;;;10.23;;
74320;SDS011;62738;45.772;4.804;2023-02-17T03:46:21;19.42;;;9.82;;
74320;SDS011;62738;45.772;4.804;2023-02-17T03:48:47;18.75;;;9.57;;
74320;SDS011;62738;45.772;4.804;2023-02-17T03:51:18;20.17;;;9.68;;
74320;SDS011;62738;45.772;4.804;2023-02-17T03:53:47;25.50;;;10.40;;
74320;SDS011;62738;45.772;4.804;2023-02-17T03:56:14;20.35;;;10.10;;
74320;SDS011;62738;45.772;4.804;2023-02-17T03:58:41;21.77;;;10.15;;
74320;SDS011;62738;45.772;4.804;2023-02-17T04:01:09;22.05;;;9.52;;
74320;SDS011;62738;45.772;4.804;2023-02-17T04:03:37;19.30;;;9.93;;
74320;SDS011;62738;45.772;4.804;2023-02-17T04:06:05;18.75;;;9.65;;
74320;SDS011;62738;45.772;4.804;2023-02-17T04:08:33;17.25;;;8.75;;
74320;SDS011;62738;45.772;4.804;2023-02-17T04:11:00;22.05;;;9.98;;
74320;SDS011;62738;45.772;4.804;2023-02-17T04:13:28;17.90;;;9.00;;
74320;SDS011;62738;45.772;4.804;2023-02-17T04:15:55;19.73;;;9.35;;
74320;SDS011;62738;45.772;4.804;2023-02-17T04:18:22;21.52;;;10.43;;
74320;SDS011;62738;45.772;4.804;2023-02-17T04:20:49;17.95;;;9.20;;
74320;SDS011;62738;45.772;4.804;2023-02-17T04:23:16;18.02;;;8.95;;
74320;SDS011;62738;45.772;4.804;2023-02-17T04:25:44;19.13;;;9.10;;
74320;SDS011;62738;45.772;4.804;2023-02-17T04:28:11;20.70;;;9.65;;
74320;SDS011;62738;45.772;4.804;2023-02-17T04:30:41;15.40;;;8.88;;
74320;SDS011;62738;45.772;4.804;2023-02-17T04:33:11;18.02;;;9.23;;
74320;SDS011;62738;45.772;4.804;2023-02-17T04:35:38;19.42;;;9.65;;
74320;SDS011;62738;45.772;4.804;2023-02-17T04:38:06;18.08;;;9.45;;
74320;SDS011;62738;45.772;4.804;2023-02-17T04:40:33;18.63;;;9.50;;
74320;SDS011;62738;45.772;4.804;2023-02-17T04:43:00;17.40;;;9.27;;
74320;SDS011;62738;45.772;4.804;2023-02-17T04:45:27;19.50;;;9.75;;
74320;SDS011;62738;45.772;4.804;2023-02-17T04:47:54;20.23;;;9.73;;
74320;SDS011;62738;45.772;4.804;2023-02-17T04:50:21;18.85;;;9.45;;
74320;SDS011;62738;45.772;4.804;2023-02-17T04:52:47;17.48;;;9.15;;
74320;SDS011;62738;45.772;4.804;2023-02-17T04:55:14;18.58;;;8.98;;
74320;SDS011;62738;45.772;4.804;2023-02-17T04:57:41;18.55;;;9.35;;
74320;SDS011;62738;45.772;4.804;2023-02-17T05:00:07;15.63;;;8.25;;
74320;SDS011;62738;45.772;4.804;2023-02-17T05:02:35;17.40;;;9.45;;
74320;SDS011;62738;45.772;4.804;2023-02-17T05:05:02;16.00;;;8.98;;
74320;SDS011;62738;45.772;4.804;2023-02-17T05:07:29;19.48;;;9.27;;
74320;SDS011;62738;45.772;4.804;2023-02-17T05:09:55;19.02;;;9.43;;
74320;SDS011;62738;45.772;4.804;2023-02-17T05:12:22;17.90;;;8.77;;
74320;SDS011;62738;45.772;4.804;2023-02-17T05:14:48;21.27;;;9.82;;
74320;SDS011;62738;45.772;4.804;2023-02-17T05:17:15;15.18;;;8.82;;
74320;SDS011;62738;45.772;4.804;2023-02-17T05:19:42;17.85;;;9.45;;
74320;SDS011;62738;45.772;4.804;2023-02-17T05:22:08;18.92;;;9.85;;
74320;SDS011;62738;45.772;4.804;2023-02-17T05:24:35;16.35;;;9.07;;
74320;SDS011;62738;45.772;4.804;2023-02-17T05:27:04;17.27;;;9.13;;
74320;SDS011;62738;45.772;4.804;2023-02-17T05:29:30;16.60;;;9.02;;
74320;SDS011;62738;45.772;4.804;2023-02-17T05:31:57;15.38;;;8.60;;
74320;SDS011;62738;45.772;4.804;2023-02-17T05:34:24;20.95;;;9.15;;
74320;SDS011;62738;45.772;4.804;2023-02-17T05:36:51;17.23;;;9.23;;
74320;SDS011;62738;45.772;4.804;2023-02-17T05:39:18;21.63;;;9.50;;
74320;SDS011;62738;45.772;4.804;2023-02-17T05:41:45;20.15;;;9.40;;
74320;SDS011;62738;45.772;4.804;2023-02-17T05:44:11;21.15;;;9.35;;
74320;SDS011;62738;45.772;4.804;2023-02-17T05:46:38;17.55;;;9.13;;
74320;SDS011;62738;45.772;4.804;2023-02-17T05:49:05;20.15;;;9.45;;
74320;SDS011;62738;45.772;4.804;2023-02-17T05:51:32;19.00;;;8.85;;
74320;SDS011;62738;45.772;4.804;2023-02-17T05:53:59;19.95;;;10.18;;
74320;SDS011;62738;45.772;4.804;2023-02-17T05:56:25;18.20;;;9.48;;
74320;SDS011;62738;45.772;4.804;2023-02-17T05:58:52;19.17;;;8.68;;
74320;SDS011;62738;45.772;4.804;2023-02-17T06:01:19;22.02;;;10.07;;
74320;SDS011;62738;45.772;4.804;2023-02-17T06:03:46;17.98;;;9.45;;
74320;SDS011;62738;45.772;4.804;2023-02-17T06:06:13;20.45;;;9.88;;
74320;SDS011;62738;45.772;4.804;2023-02-17T06:08:39;20.67;;;9.35;;
74320;SDS011;62738;45.772;4.804;2023-02-17T06:11:06;17.90;;;9.38;;
74320;SDS011;62738;45.772;4.804;2023-02-17T06:13:33;17.73;;;9.60;;
74320;SDS011;62738;45.772;4.804;2023-02-17T06:16:00;20.25;;;9.35;;
74320;SDS011;62738;45.772;4.804;2023-02-17T06:18:27;20.13;;;9.60;;
74320;SDS011;62738;45.772;4.804;2023-02-17T06:20:54;20.08;;;9.40;;
74320;SDS011;62738;45.772;4.804;2023-02-17T06:23:25;17.45;;;8.93;;
74320;SDS011;62738;45.772;4.804;2023-02-17T06:25:52;17.08;;;9.27;;
74320;SDS011;62738;45.772;4.804;2023-02-17T06:28:19;19.05;;;9.63;;
74320;SDS011;62738;45.772;4.804;2023-02-17T06:30:46;21.80;;;9.55;;
74320;SDS011;62738;45.772;4.804;2023-02-17T06:33:13;20.73;;;9.80;;
74320;SDS011;62738;45.772;4.804;2023-02-17T06:35:39;17.23;;;9.20;;
74320;SDS011;62738;45.772;4.804;2023-02-17T06:38:06;19.80;;;10.05;;
74320;SDS011;62738;45.772;4.804;2023-02-17T06:40:33;20.25;;;10.68;;
74320;SDS011;62738;45.772;4.804;2023-02-17T06:42:59;18.98;;;9.50;;
74320;SDS011;62738;45.772;4.804;2023-02-17T06:45:26;21.00;;;10.02;;
74320;SDS011;62738;45.772;4.804;2023-02-17T06:47:53;23.42;;;9.63;;
74320;SDS011;62738;45.772;4.804;2023-02-17T06:50:22;19.75;;;10.32;;
74320;SDS011;62738;45.772;4.804;2023-02-17T06:52:49;21.05;;;10.65;;
74320;SDS011;62738;45.772;4.804;2023-02-17T06:55:15;17.15;;;9.02;;
74320;SDS011;62738;45.772;4.804;2023-02-17T06:57:42;18.42;;;9.68;;
74320;SDS011;62738;45.772;4.804;2023-02-17T07:00:09;17.33;;;9.65;;
74320;SDS011;62738;45.772;4.804;2023-02-17T07:02:36;17.67;;;9.00;;
74320;SDS011;62738;45.772;4.804;2023-02-17T07:05:04;20.77;;;9.95;;
74320;SDS011;62738;45.772;4.804;2023-02-17T07:07:32;19.83;;;10.63;;
74320;SDS011;62738;45.772;4.804;2023-02-17T07:09:59;19.17;;;9.30;;
74320;SDS011;62738;45.772;4.804;2023-02-17T07:12:26;21.58;;;11.10;;
74320;SDS011;62738;45.772;4.804;2023-02-17T07:14:54;21.02;;;10.15;;
74320;SDS011;62738;45.772;4.804;2023-02-17T07:17:20;22.35;;;10.32;;
74320;SDS011;62738;45.772;4.804;2023-02-17T07:19:47;18.58;;;9.85;;
74320;SDS011;62738;45.772;4.804;2023-02-17T07:22:14;21.08;;;10.20;;
74320;SDS011;62738;45.772;4.804;2023-02-17T07:24:40;20.50;;;9.90;;
74320;SDS011;62738;45.772;4.804;2023-02-17T07:27:07;20.42;;;10.15;;
74320;SDS011;62738;45.772;4.804;2023-02-17T07:29:36;18.75;;;10.63;;
74320;SDS011;62738;45.772;4.804;2023-02-17T07:32:03;18.40;;;9.80;;
74320;SDS011;62738;45.772;4.804;2023-02-17T07:34:30;19.10;;;10.10;;
74320;SDS011;62738;45.772;4.804;2023-02-17T07:36:56;21.48;;;10.48;;
74320;SDS011;62738;45.772;4.804;2023-02-17T07:39:23;22.15;;;11.48;;
74320;SDS011;62738;45.772;4.804;2023-02-17T07:41:50;29.80;;;13.55;;
74320;SDS011;62738;45.772;4.804;2023-02-17T07:44:16;30.10;;;15.20;;
74320;SDS011;62738;45.772;4.804;2023-02-17T07:46:43;28.73;;;16.20;;
74320;SDS011;62738;45.772;4.804;2023-02-17T07:49:10;31.30;;;14.93;;
74320;SDS011;62738;45.772;4.804;2023-02-17T07:51:37;31.13;;;14.40;;
74320;SDS011;62738;45.772;4.804;2023-02-17T07:54:04;27.40;;;13.95;;
74320;SDS011;62738;45.772;4.804;2023-02-17T07:56:30;23.13;;;11.38;;
74320;SDS011;62738;45.772;4.804;2023-02-17T07:58:59;21.65;;;11.10;;
74320;SDS011;62738;45.772;4.804;2023-02-17T08:01:25;23.52;;;10.43;;
74320;SDS011;62738;45.772;4.804;2023-02-17T08:03:52;20.42;;;9.73;;
74320;SDS011;62738;45.772;4.804;2023-02-17T08:06:20;23.30;;;11.95;;
74320;SDS011;62738;45.772;4.804;2023-02-17T08:08:49;23.23;;;11.02;;
74320;SDS011;62738;45.772;4.804;2023-02-17T08:11:35;21.95;;;10.90;;
74320;SDS011;62738;45.772;4.804;2023-02-17T08:14:21;19.08;;;10.93;;
74320;SDS011;62738;45.772;4.804;2023-02-17T08:16:49;24.80;;;10.80;;
74320;SDS011;62738;45.772;4.804;2023-02-17T08:19:15;25.40;;;12.05;;
74320;SDS011;62738;45.772;4.804;2023-02-17T08:21:43;27.17;;;12.02;;
74320;SDS011;62738;45.772;4.804;2023-02-17T08:24:10;23.70;;;11.38;;
74320;SDS011;62738;45.772;4.804;2023-02-17T08:26:37;22.65;;;12.38;;
74320;SDS011;62738;45.772;4.804;2023-02-17T08:29:04;28.60;;;12.90;;
74320;SDS011;62738;45.772;4.804;2023-02-17T08:31:32;24.95;;;12.70;;
74320;SDS011;62738;45.772;4.804;2023-02-17T08:34:02;22.92;;;12.32;;
74320;SDS011;62738;45.772;4.804;2023-02-17T08:36:35;25.88;;;13.13;;
74320;SDS011;62738;45.772;4.804;2023-02-17T08:39:06;25.00;;;13.43;;
74320;SDS011;62738;45.772;4.804;2023-02-17T08:41:38;28.30;;;13.10;;
74320;SDS011;62738;45.772;4.804;2023-02-17T08:44:07;25.42;;;12.70;;
74320;SDS011;62738;45.772;4.804;2023-02-17T08:46:39;20.92;;;12.57;;
74320;SDS011;62738;45.772;4.804;2023-02-17T08:49:07;26.75;;;13.32;;
74320;SDS011;62738;45.772;4.804;2023-02-17T08:51:34;27.30;;;12.52;;
74320;SDS011;62738;45.772;4.804;2023-02-17T08:54:02;24.73;;;13.23;;
74320;SDS011;62738;45.772;4.804;2023-02-17T08:56:32;22.13;;;12.57;;
74320;SDS011;62738;45.772;4.804;2023-02-17T08:58:59;25.77;;;12.38;;
74320;SDS011;62738;45.772;4.804;2023-02-17T09:01:26;29.45;;;13.27;;
74320;SDS011;62738;45.772;4.804;2023-02-17T09:03:53;27.17;;;13.80;;
74320;SDS011;62738;45.772;4.804;2023-02-17T09:06:23;23.17;;;12.32;;
74320;SDS011;62738;45.772;4.804;2023-02-17T09:08:58;24.60;;;13.00;;
74320;SDS011;62738;45.772;4.804;2023-02-17T09:11:25;24.45;;;13.15;;
74320;SDS011;62738;45.772;4.804;2023-02-17T09:13:51;22.98;;;13.23;;
74320;SDS011;62738;45.772;4.804;2023-02-17T09:16:18;22.35;;;12.80;;
74320;SDS011;62738;45.772;4.804;2023-02-17T09:18:46;25.55;;;13.50;;
74320;SDS011;62738;45.772;4.804;2023-02-17T09:21:13;25.02;;;12.43;;
74320;SDS011;62738;45.772;4.804;2023-02-17T09:23:40;23.42;;;13.18;;
74320;SDS011;62738;45.772;4.804;2023-02-17T09:26:08;24.38;;;12.98;;
74320;SDS011;62738;45.772;4.804;2023-02-17T09:28:36;24.80;;;13.38;;
74320;SDS011;62738;45.772;4.804;2023-02-17T09:33:39;21.48;;;12.35;;
74320;SDS011;62738;45.772;4.804;2023-02-17T09:36:08;27.48;;;12.70;;
74320;SDS011;62738;45.772;4.804;2023-02-17T09:38:37;23.02;;;12.82;;
74320;SDS011;62738;45.772;4.804;2023-02-17T09:41:13;20.70;;;12.55;;
74320;SDS011;62738;45.772;4.804;2023-02-17T09:43:40;22.17;;;12.68;;
74320;SDS011;62738;45.772;4.804;2023-02-17T09:46:09;22.30;;;13.55;;
74320;SDS011;62738;45.772;4.804;2023-02-17T09:48:41;22.50;;;12.65;;
74320;SDS011;62738;45.772;4.804;2023-02-17T09:51:13;21.08;;;12.85;;
74320;SDS011;62738;45.772;4.804;2023-02-17T09:53:43;26.63;;;12.35;;
74320;SDS011;62738;45.772;4.804;2023-02-17T09:56:21;22.33;;;12.68;;
74320;SDS011;62738;45.772;4.804;2023-02-17T10:01:50;19.85;;;11.85;;
74320;SDS011;62738;45.772;4.804;2023-02-17T10:04:20;21.98;;;11.90;;
74320;SDS011;62738;45.772;4.804;2023-02-17T10:06:50;18.75;;;11.48;;
74320;SDS011;62738;45.772;4.804;2023-02-17T10:09:46;20.58;;;11.20;;
74320;SDS011;62738;45.772;4.804;2023-02-17T10:12:17;22.08;;;11.00;;
74320;SDS011;62738;45.772;4.804;2023-02-17T10:14:49;19.75;;;11.48;;
74320;SDS011;62738;45.772;4.804;2023-02-17T10:20:33;21.25;;;11.50;;
74320;SDS011;62738;45.772;4.804;2023-02-17T10:23:23;20.20;;;11.02;;
74320;SDS011;62738;45.772;4.804;2023-02-17T10:31:12;20.10;;;10.68;;
74320;SDS011;62738;45.772;4.804;2023-02-17T10:33:47;21.13;;;11.95;;
74320;SDS011;62738;45.772;4.804;2023-02-17T10:38:48;23.88;;;12.20;;
74320;SDS011;62738;45.772;4.804;2023-02-17T10:41:22;22.88;;;11.65;;
74320;SDS011;62738;45.772;4.804;2023-02-17T10:43:58;20.98;;;11.13;;
74320;SDS011;62738;45.772;4.804;2023-02-17T10:46:27;19.92;;;11.40;;
74320;SDS011;62738;45.772;4.804;2023-02-17T10:48:56;25.55;;;12.43;;
74320;SDS011;62738;45.772;4.804;2023-02-17T10:51:24;22.45;;;11.75;;
74320;SDS011;62738;45.772;4.804;2023-02-17T10:54:01;23.15;;;11.98;;
74320;SDS011;62738;45.772;4.804;2023-02-17T10:56:34;24.95;;;12.02;;
74320;SDS011;62738;45.772;4.804;2023-02-17T11:01:55;21.67;;;13.20;;
74320;SDS011;62738;45.772;4.804;2023-02-17T11:04:25;22.42;;;12.93;;
74320;SDS011;62738;45.772;4.804;2023-02-17T11:06:52;25.85;;;12.85;;
74320;SDS011;62738;45.772;4.804;2023-02-17T11:09:24;19.92;;;12.07;;
74320;SDS011;62738;45.772;4.804;2023-02-17T11:11:59;27.67;;;12.88;;
74320;SDS011;62738;45.772;4.804;2023-02-17T11:14:33;23.25;;;13.57;;
74320;SDS011;62738;45.772;4.804;2023-02-17T11:17:10;28.30;;;13.50;;
74320;SDS011;62738;45.772;4.804;2023-02-17T11:19:40;23.27;;;12.85;;
74320;SDS011;62738;45.772;4.804;2023-02-17T11:22:25;21.85;;;12.35;;
74320;SDS011;62738;45.772;4.804;2023-02-17T11:25:17;25.10;;;11.82;;
74320;SDS011;62738;45.772;4.804;2023-02-17T11:27:53;25.23;;;12.50;;
74320;SDS011;62738;45.772;4.804;2023-02-17T11:30:24;29.55;;;13.18;;
74320;SDS011;62738;45.772;4.804;2023-02-17T11:32:52;22.88;;;12.82;;
74320;SDS011;62738;45.772;4.804;2023-02-17T11:35:41;23.88;;;12.30;;
74320;SDS011;62738;45.772;4.804;2023-02-17T11:38:15;24.48;;;13.10;;
74320;SDS011;62738;45.772;4.804;2023-02-17T11:41:00;23.73;;;12.93;;
74320;SDS011;62738;45.772;4.804;2023-02-17T11:43:29;20.45;;;12.15;;
74320;SDS011;62738;45.772;4.804;2023-02-17T11:51:42;26.13;;;13.65;;
74320;SDS011;62738;45.772;4.804;2023-02-17T11:54:29;27.25;;;12.77;;
74320;SDS011;62738;45.772;4.804;2023-02-17T12:02:43;26.48;;;12.60;;
74320;SDS011;62738;45.772;4.804;2023-02-17T12:11:21;24.60;;;12.73;;
74320;SDS011;62738;45.772;4.804;2023-02-17T12:17:12;25.00;;;12.88;;
74320;SDS011;62738;45.772;4.804;2023-02-17T12:20:17;24.10;;;12.82;;
74320;SDS011;62738;45.772;4.804;2023-02-17T12:25:49;23.77;;;13.07;;
74320;SDS011;62738;45.772;4.804;2023-02-17T12:28:39;22.92;;;12.85;;
74320;SDS011;62738;45.772;4.804;2023-02-17T12:34:05;25.08;;;14.32;;
74320;SDS011;62738;45.772;4.804;2023-02-17T12:36:43;23.00;;;12.50;;
74320;SDS011;62738;45.772;4.804;2023-02-17T12:39:14;25.63;;;12.98;;
74320;SDS011;62738;45.772;4.804;2023-02-17T12:44:45;23.58;;;11.63;;
74320;SDS011;62738;45.772;4.804;2023-02-17T12:47:15;26.30;;;12.23;;
74320;SDS011;62738;45.772;4.804;2023-02-17T12:49:51;25.63;;;13.10;;
74320;SDS011;62738;45.772;4.804;2023-02-17T12:52:30;23.00;;;12.43;;
74320;SDS011;62738;45.772;4.804;2023-02-17T12:55:04;22.75;;;11.50;;
74320;SDS011;62738;45.772;4.804;2023-02-17T12:57:48;21.23;;;12.68;;
74320;SDS011;62738;45.772;4.804;2023-02-17T13:00:43;21.42;;;12.13;;
74320;SDS011;62738;45.772;4.804;2023-02-17T13:03:13;23.45;;;12.18;;
74320;SDS011;62738;45.772;4.804;2023-02-17T13:08:22;23.15;;;11.70;;
74320;SDS011;62738;45.772;4.804;2023-02-17T13:11:02;28.23;;;12.73;;
74320;SDS011;62738;45.772;4.804;2023-02-17T13:13:36;22.40;;;11.73;;
74320;SDS011;62738;45.772;4.804;2023-02-17T13:16:07;20.65;;;10.43;;
74320;SDS011;62738;45.772;4.804;2023-02-17T13:18:43;21.08;;;9.77;;
74320;SDS011;62738;45.772;4.804;2023-02-17T13:21:24;19.85;;;10.52;;
74320;SDS011;62738;45.772;4.804;2023-02-17T13:23:57;17.70;;;10.15;;
74320;SDS011;62738;45.772;4.804;2023-02-17T13:26:25;19.42;;;9.93;;
74320;SDS011;62738;45.772;4.804;2023-02-17T13:29:09;20.58;;;10.65;;
74320;SDS011;62738;45.772;4.804;2023-02-17T13:31:56;24.63;;;11.00;;
74320;SDS011;62738;45.772;4.804;2023-02-17T13:34:40;23.65;;;11.10;;
74320;SDS011;62738;45.772;4.804;2023-02-17T13:37:16;25.63;;;11.45;;
74320;SDS011;62738;45.772;4.804;2023-02-17T13:39:48;23.58;;;12.35;;
74320;SDS011;62738;45.772;4.804;2023-02-17T13:42:32;25.70;;;11.68;;
74320;SDS011;62738;45.772;4.804;2023-02-17T13:45:12;23.05;;;10.70;;
74320;SDS011;62738;45.772;4.804;2023-02-17T13:47:45;20.90;;;10.98;;
74320;SDS011;62738;45.772;4.804;2023-02-17T13:53:02;24.17;;;10.23;;
74320;SDS011;62738;45.772;4.804;2023-02-17T13:55:46;16.83;;;9.30;;
74320;SDS011;62738;45.772;4.804;2023-02-17T13:58:13;17.60;;;7.88;;
74320;SDS011;62738;45.772;4.804;2023-02-17T14:00:43;14.43;;;7.93;;
74320;SDS011;62738;45.772;4.804;2023-02-17T14:06:27;12.45;;;6.47;;
74320;SDS011;62738;45.772;4.804;2023-02-17T14:08:55;15.60;;;6.68;;
74320;SDS011;62738;45.772;4.804;2023-02-17T14:11:23;19.15;;;7.07;;
74320;SDS011;62738;45.772;4.804;2023-02-17T14:13:52;11.43;;;6.15;;
74320;SDS011;62738;45.772;4.804;2023-02-17T14:16:37;15.82;;;6.60;;
74320;SDS011;62738;45.772;4.804;2023-02-17T14:19:08;15.90;;;5.90;;
74320;SDS011;62738;45.772;4.804;2023-02-17T14:21:55;17.20;;;6.57;;
74320;SDS011;62738;45.772;4.804;2023-02-17T14:24:32;15.98;;;7.57;;
74320;SDS011;62738;45.772;4.804;2023-02-17T14:27:02;17.20;;;7.10;;
74320;SDS011;62738;45.772;4.804;2023-02-17T14:29:43;18.48;;;7.50;;
74320;SDS011;62738;45.772;4.804;2023-02-17T14:32:28;17.58;;;7.13;;
74320;SDS011;62738;45.772;4.804;2023-02-17T14:35:14;15.45;;;6.72;;
74320;SDS011;62738;45.772;4.804;2023-02-17T14:37:46;14.77;;;6.80;;
74320;SDS011;62738;45.772;4.804;2023-02-17T14:40:15;16.23;;;6.93;;
74320;SDS011;62738;45.772;4.804;2023-02-17T14:42:43;15.95;;;7.75;;
74320;SDS011;62738;45.772;4.804;2023-02-17T14:45:10;14.35;;;7.18;;
74320;SDS011;62738;45.772;4.804;2023-02-17T14:47:37;16.33;;;7.10;;
74320;SDS011;62738;45.772;4.804;2023-02-17T14:50:04;14.45;;;6.60;;
74320;SDS011;62738;45.772;4.804;2023-02-17T14:52:31;15.95;;;6.57;;
74320;SDS011;62738;45.772;4.804;2023-02-17T14:54:58;18.13;;;6.55;;
74320;SDS011;62738;45.772;4.804;2023-02-17T14:57:25;16.20;;;6.80;;
74320;SDS011;62738;45.772;4.804;2023-02-17T14:59:53;14.95;;;6.20;;
74320;SDS011;62738;45.772;4.804;2023-02-17T15:02:23;11.10;;;5.78;;
74320;SDS011;62738;45.772;4.804;2023-02-17T15:04:49;13.90;;;5.70;;
74320;SDS011;62738;45.772;4.804;2023-02-17T15:07:16;14.77;;;5.85;;
74320;SDS011;62738;45.772;4.804;2023-02-17T15:09:44;10.23;;;5.43;;
74320;SDS011;62738;45.772;4.804;2023-02-17T15:12:14;11.00;;;4.97;;
74320;SDS011;62738;45.772;4.804;2023-02-17T15:14:43;10.63;;;5.35;;
74320;SDS011;62738;45.772;4.804;2023-02-17T15:17:11;13.95;;;4.97;;
74320;SDS011;62738;45.772;4.804;2023-02-17T15:19:38;12.48;;;5.15;;
74320;SDS011;62738;45.772;4.804;2023-02-17T15:22:05;9.43;;;5.05;;
74320;SDS011;62738;45.772;4.804;2023-02-17T15:24:33;9.35;;;4.78;;
74320;SDS011;62738;45.772;4.804;2023-02-17T15:27:01;15.02;;;5.47;;
74320;SDS011;62738;45.772;4.804;2023-02-17T15:29:28;7.63;;;4.15;;
74320;SDS011;62738;45.772;4.804;2023-02-17T15:31:58;11.30;;;4.65;;
74320;SDS011;62738;45.772;4.804;2023-02-17T15:34:30;8.70;;;4.45;;
74320;SDS011;62738;45.772;4.804;2023-02-17T15:36:58;9.90;;;4.13;;
74320;SDS011;62738;45.772;4.804;2023-02-17T15:39:26;9.50;;;3.67;;
74320;SDS011;62738;45.772;4.804;2023-02-17T15:41:53;7.25;;;4.15;;
74320;SDS011;62738;45.772;4.804;2023-02-17T15:44:23;7.05;;;3.22;;
74320;SDS011;62738;45.772;4.804;2023-02-17T15:49:20;8.23;;;3.50;;
74320;SDS011;62738;45.772;4.804;2023-02-17T15:51:48;8.40;;;3.60;;
74320;SDS011;62738;45.772;4.804;2023-02-17T15:54:14;9.77;;;3.53;;
74320;SDS011;62738;45.772;4.804;2023-02-17T15:56:48;10.00;;;3.85;;
74320;SDS011;62738;45.772;4.804;2023-02-17T15:59:17;9.70;;;3.53;;
74320;SDS011;62738;45.772;4.804;2023-02-17T16:01:46;8.68;;;4.03;;
74320;SDS011;62738;45.772;4.804;2023-02-17T16:04:13;10.38;;;3.83;;
74320;SDS011;62738;45.772;4.804;2023-02-17T16:06:40;7.70;;;3.50;;
74320;SDS011;62738;45.772;4.804;2023-02-17T16:09:07;6.07;;;3.47;;
74320;SDS011;62738;45.772;4.804;2023-02-17T16:11:35;10.50;;;3.92;;
74320;SDS011;62738;45.772;4.804;2023-02-17T16:14:10;6.88;;;3.75;;
74320;SDS011;62738;45.772;4.804;2023-02-17T16:19:14;8.93;;;3.45;;